^^
Station Historical Data
Daily Summary for June 10, 2017 Units:  Metric    English   Both
« Previous Day
Next Day »
Daily Weekly Monthly Yearly Custom
  High: Low: Average:
Temperature: 20.5 °C 8.1 °C 17.3 °C
Dew Point: 7.6 °C -4.9 °C 0.9 °C
Humidity: 76% 20% 36%
Wind Speed: 32km/h 0km/h 11.6km/h
Wind Gust: 40.2km/h - -
Wind- - WSW
Pressure: 1019.9 hPa 1011.1 hPa -
Precipitation: 0 mm    
Historical Graphs
 
 
Tabular Data for June 10, 2017
Time Temperature Dew Point Pressure Wind Wind Speed Wind Gust Humidity Rainfall Rate (Hourly) solar Conditions
00:04 20.4 °C -3.3 °C 1013.1 hPa NNE 7.9 km/h 16.1 km/h 20% 0 mm 0.0 W/m2
00:19 20.3 °C -3.4 °C 1013.1 hPa North 9.7 km/h 17.7 km/h 20% 0 mm 0.0 W/m2
00:34 20.2 °C -3.5 °C 1012.8 hPa NNE 11.1 km/h 16.1 km/h 20% 0 mm 0.0 W/m2
00:39 20.1 °C -3.6 °C 1012.8 hPa North 7.9 km/h 14.5 km/h 20% 0 mm 0.0 W/m2
00:44 20.1 °C -3.6 °C 1012.4 hPa NNE 9.7 km/h 20.9 km/h 20% 0 mm 0.0 W/m2
00:49 20.1 °C -3.6 °C 1012.4 hPa North 11.1 km/h 19.3 km/h 20% 0 mm 0.0 W/m2
00:54 20.1 °C -3.6 °C 1012.4 hPa North 1.4 km/h 9.7 km/h 20% 0 mm 0.0 W/m2
01:04 20 °C -3.7 °C 1012.4 hPa North 6.4 km/h 12.9 km/h 20% 0 mm 0.0 W/m2
01:09 20 °C -3.7 °C 1012.4 hPa North 3.2 km/h 19.3 km/h 20% 0 mm 0.0 W/m2
01:19 20.2 °C -3.5 °C 1012.1 hPa North 17.7 km/h 24.1 km/h 20% 0 mm 0.0 W/m2
01:24 20.3 °C -3.4 °C 1011.7 hPa North 13 km/h 19.3 km/h 20% 0 mm 0.0 W/m2
01:29 20.3 °C -3.4 °C 1011.7 hPa North 11.1 km/h 25.7 km/h 20% 0 mm 0.0 W/m2
01:39 20.2 °C -3.5 °C 1011.7 hPa North 16.3 km/h 20.9 km/h 20% 0 mm 0.0 W/m2
01:44 20.1 °C -3.6 °C 1011.7 hPa North 13 km/h 22.5 km/h 20% 0 mm 0.0 W/m2
01:49 20 °C -3.7 °C 1011.7 hPa NNW 11.1 km/h 22.5 km/h 20% 0 mm 0.0 W/m2
01:54 19.8 °C -3.8 °C 1011.7 hPa North 11.1 km/h 12.9 km/h 20% 0 mm 0.0 W/m2
01:59 19.5 °C -4.1 °C 1011.7 hPa NNW 11.1 km/h 17.7 km/h 20% 0 mm 0.0 W/m2
02:09 19.2 °C -3.7 °C 1011.7 hPa NNW 6.4 km/h 20.9 km/h 21% 0 mm 0.0 W/m2
02:14 19.1 °C -3.7 °C 1011.7 hPa NNW 9.7 km/h 17.7 km/h 21% 0 mm 0.0 W/m2
02:19 18.9 °C -3.3 °C 1011.7 hPa NNW 6.4 km/h 14.5 km/h 22% 0 mm 0.0 W/m2
02:24 18.8 °C -3.4 °C 1011.4 hPa NNW 6.4 km/h 12.9 km/h 22% 0 mm 0.0 W/m2
02:29 18.6 °C -3.5 °C 1011.4 hPa NNW 3.2 km/h 14.5 km/h 22% 0 mm 0.0 W/m2
02:34 18.5 °C -3.6 °C 1011.4 hPa North 11.1 km/h 17.7 km/h 22% 0 mm 0.0 W/m2
02:39 18.4 °C -3.7 °C 1011.1 hPa North 7.9 km/h 14.5 km/h 22% 0 mm 0.0 W/m2
02:44 18.6 °C -3.5 °C 1011.1 hPa North 13 km/h 24.1 km/h 22% 0 mm 0.0 W/m2
02:49 18.8 °C -3.4 °C 1011.1 hPa North 14.3 km/h 17.7 km/h 22% 0 mm 0.0 W/m2
02:59 18.7 °C -3.5 °C 1011.1 hPa NNW 11.1 km/h 19.3 km/h 22% 0 mm 0.0 W/m2
03:04 18.6 °C -3.5 °C 1011.1 hPa North 13 km/h 14.5 km/h 22% 0 mm 0.0 W/m2
03:10 18.4 °C -3.1 °C 1011.4 hPa NNW 6.4 km/h 12.9 km/h 23% 0 mm 0.0 W/m2
03:15 18.4 °C -3.1 °C 1011.1 hPa North 13 km/h 19.3 km/h 23% 0 mm 0.0 W/m2
03:20 18.5 °C -3 °C 1011.1 hPa NNW 14.3 km/h 19.3 km/h 23% 0 mm 0.0 W/m2
03:30 18.7 °C -3.5 °C 1011.1 hPa NNW 9.7 km/h 19.3 km/h 22% 0 mm 0.0 W/m2
03:35 18.7 °C -3.5 °C 1011.1 hPa NNW 14.3 km/h 22.5 km/h 22% 0 mm 0.0 W/m2
03:45 18.6 °C -2.9 °C 1011.1 hPa NNW 9.7 km/h 14.5 km/h 23% 0 mm 0.0 W/m2
03:50 18.4 °C -3.1 °C 1011.1 hPa North 11.1 km/h 19.3 km/h 23% 0 mm 0.0 W/m2
03:55 18.4 °C -3.1 °C 1011.1 hPa North 9.7 km/h 20.9 km/h 23% 0 mm 0.0 W/m2
04:05 18.3 °C -3.2 °C 1011.7 hPa NNW 7.9 km/h 17.7 km/h 23% 0 mm 0.0 W/m2
04:10 18.2 °C -3.3 °C 1011.7 hPa NW 14.3 km/h 25.7 km/h 23% 0 mm 0.0 W/m2
04:20 18.1 °C -2.8 °C 1011.7 hPa North 11.1 km/h 19.3 km/h 24% 0 mm 0.0 W/m2
04:25 18.1 °C -2.8 °C 1011.4 hPa NNW 9.7 km/h 17.7 km/h 24% 0 mm 0.0 W/m2
04:30 18.1 °C -2.8 °C 1011.4 hPa North 7.9 km/h 14.5 km/h 24% 0 mm 0.0 W/m2
04:35 18.1 °C -2.8 °C 1011.4 hPa North 11.1 km/h 17.7 km/h 24% 0 mm 0.0 W/m2
04:40 18 °C -2.9 °C 1011.7 hPa North 7.9 km/h 19.3 km/h 24% 0 mm 0.0 W/m2
04:50 17.9 °C -3 °C 1011.7 hPa North 14.3 km/h 14.5 km/h 24% 0 mm 0.0 W/m2
05:00 17.8 °C -3 °C 1011.7 hPa NNW 7.9 km/h 12.9 km/h 24% 0 mm 0.0 W/m2
05:05 17.7 °C -3.1 °C 1011.7 hPa NNW 7.9 km/h 17.7 km/h 24% 0 mm 0.0 W/m2
05:10 17.6 °C -3.2 °C 1012.1 hPa NNW 3.2 km/h 14.5 km/h 24% 0 mm 0.0 W/m2
05:15 17.6 °C -3.2 °C 1012.4 hPa NNW 6.4 km/h 14.5 km/h 24% 0 mm 0.0 W/m2
05:20 17.4 °C -2.8 °C 1012.4 hPa NW 13 km/h 14.5 km/h 25% 0 mm 0.0 W/m2
05:25 17.5 °C -2.2 °C 1012.8 hPa NW 7.9 km/h 17.7 km/h 26% 0 mm 0.0 W/m2
05:35 17.6 °C -1.1 °C 1012.8 hPa WNW 11.1 km/h 22.5 km/h 28% 0 mm 0.0 W/m2
05:40 17.4 °C -1.3 °C 1012.8 hPa WNW 6.4 km/h 16.1 km/h 28% 0 mm 0.0 W/m2
05:45 17.2 °C -0.5 °C 1012.8 hPa West 13 km/h 20.9 km/h 30% 0 mm 0.0 W/m2
05:50 17.3 °C -0.4 °C 1012.8 hPa West 9.7 km/h 20.9 km/h 30% 0 mm 0.0 W/m2
05:55 17.4 °C -0.4 °C 1013.1 hPa WNW 9.7 km/h 16.1 km/h 30% 0 mm 0.0 W/m2
06:00 17.3 °C -0.4 °C 1012.8 hPa WNW 6.4 km/h 16.1 km/h 30% 0 mm 0.0 W/m2
06:05 17.2 °C -0.1 °C 1013.1 hPa WNW 9.7 km/h 12.9 km/h 31% 0 mm 0.0 W/m2
06:15 17.3 °C -1.4 °C 1013.1 hPa WNW 7.9 km/h 12.9 km/h 28% 0 mm 0.0 W/m2
06:20 17.2 °C -1.5 °C 1013.1 hPa Calm   8 km/h 28% 0 mm 0.0 W/m2
06:26 17.2 °C -1.5 °C 1013.1 hPa WNW 11.1 km/h 11.3 km/h 28% 0 mm 0.0 W/m2
06:31 17.3 °C -1.4 °C 1013.1 hPa WNW 13 km/h 13 km/h 28% 0 mm 0.0 W/m2
06:36 17.1 °C -1.1 °C 1013.4 hPa WNW 6.4 km/h 11.3 km/h 29% 0 mm 0.0 W/m2
06:46 17.1 °C -0.6 °C 1013.4 hPa WNW 9.7 km/h 12.9 km/h 30% 0 mm 5.0 W/m2
07:00 17.1 °C -1.1 °C 1013.4 hPa WNW 9.7 km/h 16.1 km/h 29% 0 mm 7.0 W/m2
07:12 16.3 °C 0 °C 1013.8 hPa WNW 7.9 km/h 11.3 km/h 33% 0 mm 14.0 W/m2
07:22 15.7 °C 0.3 °C 1013.8 hPa WNW 9.7 km/h 11.3 km/h 35% 0 mm 18.0 W/m2
07:31 15.6 °C 0.6 °C 1013.8 hPa WNW 7.9 km/h 11.3 km/h 36% 0 mm 21.0 W/m2
07:40 15.4 °C 0.4 °C 1014.1 hPa WNW 7.9 km/h 12.9 km/h 36% 0 mm 74.0 W/m2
07:51 16.2 °C 0.3 °C 1014.1 hPa WNW 13 km/h 17.7 km/h 34% 0 mm 165.0 W/m2
08:01 16.4 °C 0.1 °C 1014.1 hPa WNW 13 km/h 13 km/h 33% 0 mm 209.0 W/m2
08:12 17.1 °C -3.1 °C 1014.4 hPa WNW 7.9 km/h 16.1 km/h 25% 0 mm 248.0 W/m2
08:22 17.5 °C -3.3 °C 1014.8 hPa West 19.5 km/h 25.7 km/h 24% 0 mm 288.0 W/m2
08:37 17.2 °C -4.1 °C 1014.8 hPa West 20.9 km/h 22.5 km/h 23% 0 mm 315.0 W/m2
08:51 17 °C -4.9 °C 1015.1 hPa West 13 km/h 25.7 km/h 22% 0 mm 353.0 W/m2
08:57 17.1 °C -4.2 °C 1015.1 hPa WNW 13 km/h 24.1 km/h 23% 0 mm 376.0 W/m2
09:12 17.2 °C -3 °C 1015.1 hPa WNW 27.4 km/h 29 km/h 25% 0 mm 401.0 W/m2
09:25 17.3 °C -0.9 °C 1015.1 hPa WNW 17.7 km/h 29 km/h 29% 0 mm 434.0 W/m2
09:32 17.6 °C 0.7 °C 1015.1 hPa WNW 22.7 km/h 33.8 km/h 32% 0 mm 457.0 W/m2
10:51 18.4 °C 3.8 °C 1015.1 hPa NW 13 km/h 25.7 km/h 38% 0 mm 425.0 W/m2
10:58 18.9 °C 3.5 °C 1015.1 hPa NW 17.7 km/h 17.7 km/h 36% 0 mm 557.0 W/m2
11:08 19.2 °C 4.2 °C 1015.1 hPa NW 17.7 km/h 22.5 km/h 37% 0 mm 617.0 W/m2
11:13 19.5 °C 4.8 °C 1015.1 hPa WNW 24.1 km/h 32.2 km/h 38% 0 mm 642.0 W/m2
11:18 19.3 °C 5 °C 1015.1 hPa NW 20.9 km/h 27.4 km/h 39% 0 mm 642.0 W/m2
11:23 19.2 °C 5.3 °C 1015.1 hPa WNW 20.9 km/h 24.1 km/h 40% 0 mm 636.0 W/m2
11:38 19.7 °C 3.8 °C 1014.8 hPa NW 22.7 km/h 24.1 km/h 35% 0 mm 686.0 W/m2
11:48 19.9 °C 4 °C 1015.1 hPa WNW 16.3 km/h 17.7 km/h 35% 0 mm 664.0 W/m2
11:58 20.2 °C 5.4 °C 1014.8 hPa WNW 19.5 km/h 22.5 km/h 38% 0 mm 638.0 W/m2
12:03 19.9 °C 5.5 °C 1014.8 hPa WNW 11.1 km/h 19.3 km/h 39% 0 mm 557.0 W/m2
12:08 20 °C 5.6 °C 1014.8 hPa West 30.6 km/h 30.6 km/h 39% 0 mm 608.0 W/m2
12:18 20.2 °C 5.8 °C 1014.8 hPa WNW 20.9 km/h 35.4 km/h 39% 0 mm 608.0 W/m2
12:24 19.9 °C 5.9 °C 1014.4 hPa West 16.3 km/h 27.4 km/h 40% 0 mm 594.0 W/m2
12:30 19.8 °C 5.8 °C 1014.4 hPa West 13 km/h 17.7 km/h 40% 0 mm 594.0 W/m2
12:35 20.1 °C 5.3 °C 1014.4 hPa West 9.7 km/h 22.5 km/h 38% 0 mm 589.0 W/m2
12:40 20.3 °C 5.5 °C 1014.4 hPa WSW 7.9 km/h 20.9 km/h 38% 0 mm 580.0 W/m2
12:49 20.3 °C 5.1 °C 1014.4 hPa WSW 19.5 km/h 30.6 km/h 37% 0 mm 568.0 W/m2
12:58 20.5 °C 4.9 °C 1014.4 hPa West 14.3 km/h 27.4 km/h 36% 0 mm 577.0 W/m2
14:24 19.8 °C 3.5 °C 1014.4 hPa WSW 32 km/h 40.2 km/h 34% 0 mm 408.0 W/m2
14:34 19.7 °C 3.8 °C 1014.4 hPa WSW 19.5 km/h 30.6 km/h 35% 0 mm 383.0 W/m2
14:47 19.7 °C 4.2 °C 1014.8 hPa West 17.7 km/h 27.4 km/h 36% 0 mm 355.0 W/m2
14:55 19.5 °C 4 °C 1014.8 hPa WSW 14.3 km/h 22.5 km/h 36% 0 mm 332.0 W/m2
15:04 19.6 °C 4.1 °C 1014.8 hPa West 17.7 km/h 22.5 km/h 36% 0 mm 304.0 W/m2
15:09 19.7 °C 4.2 °C 1014.8 hPa WSW 19.5 km/h 19.5 km/h 36% 0 mm 292.0 W/m2
15:14 19.6 °C 4.5 °C 1014.8 hPa WSW 16.3 km/h 27.4 km/h 37% 0 mm 279.0 W/m2
15:19 19.7 °C 3.8 °C 1014.8 hPa West 30.6 km/h 33.8 km/h 35% 0 mm 264.0 W/m2
15:44 19.4 °C 3.1 °C 1014.8 hPa West 22.7 km/h 24.1 km/h 34% 0 mm 185.0 W/m2
15:54 19.2 °C 3.8 °C 1015.1 hPa West 19.5 km/h 27.4 km/h 36% 0 mm 144.0 W/m2
15:59 19.2 °C 4.2 °C 1015.1 hPa WSW 19.5 km/h 24.1 km/h 37% 0 mm 128.0 W/m2
16:04 19.2 °C 3.4 °C 1015.1 hPa WSW 19.5 km/h 22.5 km/h 35% 0 mm 111.0 W/m2
16:10 19.1 °C 4.1 °C 1015.5 hPa SW 19.5 km/h 20.9 km/h 37% 0 mm 93.0 W/m2
16:14 19 °C 3.6 °C 1015.5 hPa West 20.9 km/h 22.5 km/h 36% 0 mm 77.0 W/m2
16:19 18.9 °C 3.5 °C 1015.5 hPa WSW 13 km/h 19.3 km/h 36% 0 mm 62.0 W/m2
16:24 18.8 °C 3.8 °C 1015.5 hPa West 9.7 km/h 17.7 km/h 37% 0 mm 49.0 W/m2
16:34 18.6 °C 3.6 °C 1015.8 hPa SW 13 km/h 19.3 km/h 37% 0 mm 26.0 W/m2
16:49 18.1 °C 3.6 °C 1016.1 hPa WSW 20.9 km/h 22.5 km/h 38% 0 mm 11.0 W/m2
16:54 17.3 °C 7.6 °C 1016.1 hPa SW 13 km/h 19.3 km/h 53% 0 mm 5.0 W/m2
17:14 16.4 °C 7.6 °C 1016.1 hPa SW 16.3 km/h 17.7 km/h 56% 0 mm 0.0 W/m2
17:20 16.1 °C 7.6 °C 1016.5 hPa SSW 16.3 km/h 17.7 km/h 57% 0 mm 0.0 W/m2
17:23 16.1 °C 7.6 °C 1016.5 hPa SSW 16.3 km/h 17.7 km/h 57% 0 mm 0.0 W/m2
17:30 15.8 °C 7.6 °C 1016.5 hPa SSW 7.9 km/h 16.1 km/h 58% 0 mm 0.0 W/m2
17:45 15.4 °C 7.2 °C 1016.8 hPa SSW 7.9 km/h 11.3 km/h 58% 0 mm 0.0 W/m2
18:00 15.1 °C 6.9 °C 1016.8 hPa SSW 9.7 km/h 12.9 km/h 58% 0 mm 0.0 W/m2
18:05 15 °C 6.8 °C 1017.2 hPa SSW 13 km/h 17.7 km/h 58% 0 mm 0.0 W/m2
18:20 14.6 °C 6.4 °C 1017.2 hPa SSW 11.1 km/h 16.1 km/h 58% 0 mm 0.0 W/m2
18:40 14.3 °C 6.4 °C 1017.8 hPa SSW 9.7 km/h 12.9 km/h 59% 0 mm 0.0 W/m2
18:50 14.1 °C 6.2 °C 1017.8 hPa SSW 9.7 km/h 14.5 km/h 59% 0 mm 0.0 W/m2
19:05 13.8 °C 6.2 °C 1017.8 hPa SSW 11.1 km/h 14.5 km/h 60% 0 mm 0.0 W/m2
19:15 13.6 °C 6.2 °C 1018.5 hPa SSW 7.9 km/h 8 km/h 61% 0 mm 0.0 W/m2
19:31 13.2 °C 6.1 °C 1018.2 hPa SSW 6.4 km/h 9.7 km/h 62% 0 mm 0.0 W/m2
19:46 13 °C 5.9 °C 1018.8 hPa SSW 6.4 km/h 6.4 km/h 62% 0 mm 0.0 W/m2
20:06 12.6 °C 5.5 °C 1018.8 hPa SSW 7.9 km/h 11.3 km/h 62% 0 mm 0.0 W/m2
20:16 12.5 °C 5.4 °C 1018.8 hPa Calm   4.8 km/h 62% 0 mm 0.0 W/m2
20:21 12.3 °C 5.2 °C 1019.2 hPa Calm     62% 0 mm 0.0 W/m2
20:37 12.2 °C 5.1 °C 1019.2 hPa SSW 3.2 km/h 9.7 km/h 62% 0 mm 0.0 W/m2
20:50 12.1 °C 5 °C 1019.5 hPa SSW 11.1 km/h 11.3 km/h 62% 0 mm 0.0 W/m2
20:59 11.8 °C 5 °C 1019.2 hPa SSW 7.9 km/h 9.7 km/h 63% 0 mm 0.0 W/m2
21:14 11.4 °C 4.8 °C 1019.5 hPa SSW 4.7 km/h 6.4 km/h 64% 0 mm 0.0 W/m2
21:24 11.2 °C 5.1 °C 1019.5 hPa SSW 4.7 km/h 8 km/h 66% 0 mm 0.0 W/m2
23:15 8.9 °C 4.3 °C 1019.5 hPa Calm     73% 0 mm 0.0 W/m2
23:20 8.8 °C 4.4 °C 1019.5 hPa Calm     74% 0 mm 0.0 W/m2
23:25 8.7 °C 4.3 °C 1019.5 hPa Calm     74% 0 mm 0.0 W/m2
23:31 8.6 °C 4.4 °C 1019.9 hPa Calm     75% 0 mm 0.0 W/m2
23:36 8.5 °C 4.3 °C 1019.5 hPa Calm     75% 0 mm 0.0 W/m2
23:41 8.3 °C 4.1 °C 1019.5 hPa Calm     75% 0 mm 0.0 W/m2
23:46 8.2 °C 4.2 °C 1019.5 hPa Calm     76% 0 mm 0.0 W/m2
23:51 8.2 °C 4.2 °C 1019.5 hPa Calm     76% 0 mm 0.0 W/m2
23:56 8.1 °C 4.1 °C 1019.5 hPa Calm     76% 0 mm 0.0 W/m2
Canyon Roadhouse, Fishriver Canyon, Namibia
Compliments of Weather Underground - 2.5 mb